Terminal Aerodrome Forecast
Issued by NWS

Home | Current Version | Previous Version | Graphics & Text | Print | Product List | Glossary On
Versions: 1 2 3 4 5 6 7 8 9 10 11 12 13
000
FTUS43 KBIS 022333
TAFMOT
TAF
KMOT 022333Z 0300/0324 30016G24KT P6SM BKN130
     FM030130 31009KT P6SM SCT110
     FM030600 29011KT P6SM SCT110
     FM031500 30015G21KT P6SM SKC=

USA.gov is the U.S. government's official web portal to all federal, state and local government web resources and services.